Time;durP1;ratioP1;P1;durP2;ratioP2;P2;SDS_P1;SDS_P2;PMS_P1;PMS_P2;Temp;Humidity;BMP_temperature;BMP_pressure;BME280_temperature;BME280_humidity;BME280_pressure;Samples;Min_cycle;Max_cycle;Signal;HPM_P1;HPM_P2
2023/03/17 00:01:28;;;;;;;6.80;5.68;;;;;;;2.01;63.82;93979.09;5009628;28;20429;-77
2023/03/17 00:03:54;;;;;;;6.57;5.80;;;;;;;1.96;63.46;93960.69;5007991;28;20248;-77
2023/03/17 00:06:28;;;;;;;7.22;6.40;;;;;;;1.99;63.59;93966.22;5006864;28;20430;-77
2023/03/17 00:08:53;;;;;;;6.55;5.95;;;;;;;1.97;64.21;93978.78;5007817;28;20037;-77
2023/03/17 00:11:19;;;;;;;5.78;5.10;;;;;;;2.04;63.83;93970.69;5008213;28;20029;-77
2023/03/17 00:13:46;;;;;;;5.88;5.28;;;;;;;2.25;63.35;93988.13;5007862;28;20044;-77
2023/03/17 00:16:16;;;;;;;5.80;5.22;;;;;;;2.31;63.09;93992.31;4991060;28;20067;-78
2023/03/17 00:18:42;;;;;;;7.03;6.18;;;;;;;2.30;63.46;93998.63;5003568;28;20151;-77
2023/03/17 00:21:13;;;;;;;6.43;5.20;;;;;;;2.14;63.45;93983.06;5008297;28;20537;-77
2023/03/17 00:23:39;;;;;;;7.65;5.97;;;;;;;2.05;63.50;93972.28;5010474;28;20029;-78
2023/03/17 00:26:05;;;;;;;5.47;4.97;;;;;;;2.11;63.72;93983.59;4994373;28;20050;-78
2023/03/17 00:28:31;;;;;;;5.47;4.85;;;;;;;2.30;63.21;93992.59;5012345;28;20502;-78
2023/03/17 00:30:59;;;;;;;5.00;4.47;;;;;;;2.24;63.66;93983.91;5011439;28;20758;-77
2023/03/17 00:33:27;;;;;;;6.55;5.45;;;;;;;2.39;63.03;93991.03;5008438;28;20048;-76
2023/03/17 00:35:53;;;;;;;9.07;6.53;;;;;;;2.30;63.26;93988.13;5013439;28;20025;-78
2023/03/17 00:38:20;;;;;;;5.70;5.10;;;;;;;2.24;63.26;93986.53;5012443;28;20409;-77
2023/03/17 00:40:46;;;;;;;5.97;5.30;;;;;;;2.35;62.88;93980.25;5011700;28;20433;-77
2023/03/17 00:43:13;;;;;;;6.03;5.43;;;;;;;2.55;62.43;93991.88;5012445;28;20161;-77
2023/03/17 00:45:42;;;;;;;5.72;4.72;;;;;;;2.48;62.44;93976.38;5000818;28;20462;-78
2023/03/17 00:48:17;;;;;;;7.10;5.90;;;;;;;2.53;62.49;93994.75;4999267;28;20026;-78
2023/03/17 00:50:44;;;;;;;6.72;5.45;;;;;;;2.56;62.43;93996.06;5008419;28;20030;-78
2023/03/17 00:53:15;;;;;;;5.80;5.28;;;;;;;2.47;62.51;93999.19;5010285;28;20044;-76
2023/03/17 00:55:43;;;;;;;9.02;6.00;;;;;;;2.39;63.11;94004.16;5012772;28;20634;-78
2023/03/17 00:58:33;;;;;;;8.05;6.13;;;;;;;2.26;63.19;93970.50;4993357;28;20038;-77
2023/03/17 01:00:59;;;;;;;7.13;5.68;;;;;;;2.38;63.33;94000.75;5008693;28;20406;-77
2023/03/17 01:03:26;;;;;;;6.35;5.60;;;;;;;2.37;63.13;94006.25;5012266;28;22229;-77
2023/03/17 01:05:55;;;;;;;5.85;5.25;;;;;;;2.25;63.48;93985.50;5009222;28;20025;-77
2023/03/17 01:08:22;;;;;;;6.45;5.43;;;;;;;2.38;63.57;93999.97;4996445;28;20060;-77
2023/03/17 01:10:48;;;;;;;7.15;6.45;;;;;;;2.03;63.34;93956.00;4998149;28;20065;-77
2023/03/17 01:13:14;;;;;;;6.90;5.32;;;;;;;2.28;63.49;93998.09;4993621;28;20471;-77
2023/03/17 01:15:49;;;;;;;8.30;6.45;;;;;;;2.18;63.71;93974.44;5011177;28;20038;-79
2023/03/17 01:18:20;;;;;;;12.48;9.73;;;;;;;2.35;63.55;94005.72;5010790;28;20033;-77
2023/03/17 01:20:46;;;;;;;12.02;9.95;;;;;;;2.38;63.71;94006.00;5012621;28;20150;-78
2023/03/17 01:23:12;;;;;;;10.50;8.15;;;;;;;2.37;63.24;94006.25;5010531;28;20867;-77
2023/03/17 01:25:40;;;;;;;7.15;5.75;;;;;;;2.34;63.62;94004.16;5013079;28;20056;-77
2023/03/17 01:28:06;;;;;;;8.57;6.82;;;;;;;2.24;63.50;93983.91;5010307;28;20906;-77
2023/03/17 01:30:37;;;;;;;12.43;9.30;;;;;;;2.49;63.12;94005.00;5010088;28;20469;-77
2023/03/17 01:33:04;;;;;;;21.58;16.48;;;;;;;2.52;63.19;94007.09;5012317;28;20509;-78
2023/03/17 01:35:30;;;;;;;15.05;10.68;;;;;;;2.51;63.05;94005.50;5009201;28;20044;-78
2023/03/17 01:37:56;;;;;;;12.07;9.02;;;;;;;2.56;63.13;94011.81;5004771;28;20037;-78
2023/03/17 01:40:26;;;;;;;7.25;6.55;;;;;;;2.58;62.81;94013.16;5009915;28;20506;-77
2023/03/17 01:42:58;;;;;;;10.68;8.05;;;;;;;2.25;63.71;93990.72;5009275;28;20033;-77
2023/03/17 01:46:01;;;;;;;10.25;7.60;;;;;;;2.23;65.12;94016.44;5010310;28;20037;-77
2023/03/17 01:48:27;;;;;;;6.85;5.57;;;;;;;2.44;63.51;93998.94;5009422;28;20034;-78
2023/03/17 01:50:53;;;;;;;6.82;5.93;;;;;;;2.49;62.13;93997.13;5011825;28;20429;-76
2023/03/17 01:53:21;;;;;;;7.13;5.60;;;;;;;2.20;62.93;93967.09;4990932;28;20057;-77
2023/03/17 01:55:49;;;;;;;13.98;11.75;;;;;;;2.29;62.97;93991.00;5009326;28;20533;-78
2023/03/17 01:58:15;;;;;;;6.57;5.97;;;;;;;2.56;62.34;94001.31;5010992;28;20321;-78
2023/03/17 02:00:42;;;;;;;7.43;6.00;;;;;;;2.61;61.65;94011.84;4998597;28;20040;-77
2023/03/17 02:03:08;;;;;;;6.78;6.07;;;;;;;2.67;62.06;94024.72;5010602;28;20630;-80
2023/03/17 02:05:35;;;;;;;8.23;7.43;;;;;;;2.67;61.96;94029.19;5009653;28;20018;-77
2023/03/17 02:08:00;;;;;;;8.27;6.55;;;;;;;2.77;61.54;94024.75;5010933;28;20042;-78
2023/03/17 02:10:28;;;;;;;6.10;4.47;;;;;;;2.69;61.79;94027.91;5009932;28;20602;-77
2023/03/17 02:12:57;;;;;;;6.30;5.65;;;;;;;2.71;61.86;94023.16;5012253;28;20057;-78
2023/03/17 02:15:22;;;;;;;5.70;5.15;;;;;;;2.58;61.50;94001.84;5008822;28;20076;-77
2023/03/17 02:17:48;;;;;;;9.75;8.73;;;;;;;2.45;61.36;93980.28;5012248;28;20470;-77
2023/03/17 02:20:17;;;;;;;12.02;8.52;;;;;;;2.57;62.30;94032.56;5008719;28;20073;-76
2023/03/17 02:22:53;;;;;;;8.38;6.88;;;;;;;2.38;63.17;94023.56;5009244;28;20041;-77
2023/03/17 02:25:22;;;;;;;8.95;8.15;;;;;;;2.52;62.77;94032.56;5009448;28;20041;-78
2023/03/17 02:27:50;;;;;;;5.95;5.35;;;;;;;2.55;62.65;94036.53;5009619;28;20093;-77
2023/03/17 02:30:19;;;;;;;4.80;4.30;;;;;;;2.36;62.38;94002.81;5007443;28;20163;-78
2023/03/17 02:32:45;;;;;;;13.23;9.93;;;;;;;2.71;62.17;94035.50;5012768;28;20368;-77
2023/03/17 02:35:10;;;;;;;8.40;6.60;;;;;;;2.52;62.46;94032.56;5008554;28;20128;-78
2023/03/17 02:37:36;;;;;;;6.90;5.88;;;;;;;2.42;63.18;94035.94;5009600;28;20065;-78
2023/03/17 02:40:04;;;;;;;6.05;5.43;;;;;;;2.28;63.33;94015.66;5006119;28;20053;-77
2023/03/17 02:42:30;;;;;;;8.25;7.20;;;;;;;2.56;63.41;94053.81;5010998;28;20120;-78
2023/03/17 02:44:56;;;;;;;7.28;6.30;;;;;;;2.63;62.67;94055.19;4999794;28;20030;-78
2023/03/17 02:47:21;;;;;;;8.90;7.68;;;;;;;2.37;62.75;94028.03;5009248;28;20069;-77
2023/03/17 02:49:48;;;;;;;8.10;6.07;;;;;;;2.46;63.16;94065.88;4993289;28;20036;-77
2023/03/17 02:52:13;;;;;;;6.15;5.55;;;;;;;2.34;63.27;94040.88;5009068;28;20037;-77
2023/03/17 02:54:38;;;;;;;5.50;4.90;;;;;;;2.32;62.32;94014.88;5011123;28;20605;-78
2023/03/17 02:57:04;;;;;;;9.02;8.00;;;;;;;2.59;62.06;94050.72;5009001;28;20029;-77
2023/03/17 02:59:30;;;;;;;6.88;6.10;;;;;;;2.49;62.51;94056.72;5009944;28;20105;-78
2023/03/17 03:01:55;;;;;;;7.53;6.68;;;;;;;2.14;63.96;94040.78;5012374;28;20042;-77
2023/03/17 03:04:23;;;;;;;8.75;7.85;;;;;;;1.94;65.71;94055.38;5009483;28;20485;-77
2023/03/17 03:06:48;;;;;;;5.90;5.30;;;;;;;2.11;64.80;94047.31;5010219;28;20093;-78
2023/03/17 03:09:14;;;;;;;5.30;4.80;;;;;;;2.41;63.85;94065.84;5008900;28;20485;-76
2023/03/17 03:11:40;;;;;;;5.90;5.30;;;;;;;2.57;62.77;94061.47;5009547;28;20541;-76
2023/03/17 03:14:07;;;;;;;6.50;5.80;;;;;;;2.58;62.67;94064.88;4991038;28;20620;-78
2023/03/17 03:16:32;;;;;;;6.07;5.22;;;;;;;2.56;62.93;94069.59;5010917;28;20500;-77
2023/03/17 03:18:58;;;;;;;6.20;5.32;;;;;;;2.70;62.36;94070.69;5008733;28;20048;-77
2023/03/17 03:21:23;;;;;;;5.50;5.00;;;;;;;2.50;62.89;94072.19;5008548;28;20041;-77
2023/03/17 03:23:49;;;;;;;5.13;4.63;;;;;;;2.31;63.56;94057.94;5008119;28;20044;-78
2023/03/17 03:26:15;;;;;;;5.60;5.07;;;;;;;2.58;62.95;94078.81;4997324;28;20029;-77
2023/03/17 03:28:40;;;;;;;8.27;5.57;;;;;;;2.58;62.54;94063.03;5009409;28;20026;-77
2023/03/17 03:31:06;;;;;;;7.53;5.57;;;;;;;2.57;62.53;94081.66;5010296;28;20715;-78
2023/03/17 03:33:32;;;;;;;6.18;5.53;;;;;;;2.57;62.76;94071.16;5007443;28;20044;-78
2023/03/17 03:35:58;;;;;;;7.63;6.82;;;;;;;2.65;62.15;94083.78;4992349;28;20038;-77
2023/03/17 03:38:25;;;;;;;7.63;6.15;;;;;;;2.64;61.90;94071.72;5008102;28;20384;-77
2023/03/17 03:40:50;;;;;;;7.93;6.40;;;;;;;2.60;62.44;94094.31;5009221;28;20162;-77
2023/03/17 03:43:16;;;;;;;6.20;5.60;;;;;;;2.33;62.88;94074.22;4993825;28;20077;-77
2023/03/17 03:45:41;;;;;;;7.18;6.03;;;;;;;2.44;62.98;94067.97;5011550;28;20041;-77
2023/03/17 03:48:07;;;;;;;7.28;6.22;;;;;;;2.58;62.43;94097.19;4989935;28;20165;-78
2023/03/17 03:50:32;;;;;;;11.13;9.38;;;;;;;2.59;62.18;94080.38;5010048;28;20029;-77
2023/03/17 03:52:57;;;;;;;10.32;9.23;;;;;;;2.59;62.10;94082.22;4988177;28;20521;-77
2023/03/17 03:55:23;;;;;;;9.40;8.50;;;;;;;2.45;62.35;94080.03;5009931;28;20041;-77
2023/03/17 03:57:48;;;;;;;10.73;8.50;;;;;;;2.66;62.30;94101.94;5007386;28;20037;-77
2023/03/17 04:00:15;;;;;;;6.93;6.18;;;;;;;2.59;61.69;94080.38;5009956;28;20041;-77
2023/03/17 04:02:42;;;;;;;11.80;6.78;;;;;;;2.56;61.69;94074.84;5009512;28;20017;-77
2023/03/17 04:05:08;;;;;;;7.20;6.25;;;;;;;2.52;61.93;94096.38;5009672;28;20061;-78
2023/03/17 04:07:35;;;;;;;8.57;6.93;;;;;;;2.55;61.64;94089.78;5008399;28;20052;-77
2023/03/17 04:10:00;;;;;;;7.65;6.57;;;;;;;2.59;61.89;94103.22;5009534;28;20045;-77
2023/03/17 04:12:26;;;;;;;10.13;7.70;;;;;;;2.73;61.53;94117.47;5008434;28;20033;-79
2023/03/17 04:14:51;;;;;;;6.85;5.72;;;;;;;2.51;61.09;94076.41;5009221;28;20116;-77
2023/03/17 04:17:17;;;;;;;7.57;6.82;;;;;;;2.70;61.61;94108.25;5007830;28;20048;-77
2023/03/17 04:19:42;;;;;;;7.78;6.80;;;;;;;2.72;61.90;94113.25;5009504;28;20481;-77
2023/03/17 04:22:10;;;;;;;10.35;8.43;;;;;;;2.68;61.91;94110.34;5009716;28;20479;-77
2023/03/17 04:24:36;;;;;;;9.00;6.90;;;;;;;2.33;62.10;94068.97;5009036;28;21409;-77
2023/03/17 04:27:03;;;;;;;9.73;6.78;;;;;;;2.61;61.96;94119.50;4993743;28;20022;-77
2023/03/17 04:29:28;;;;;;;7.10;6.35;;;;;;;2.53;61.94;94108.44;5008670;28;20033;-77
2023/03/17 04:31:54;;;;;;;6.97;6.22;;;;;;;2.31;61.92;94073.66;5007679;28;20587;-79
2023/03/17 04:34:19;;;;;;;6.53;5.80;;;;;;;2.55;61.76;94104.78;5009567;28;20037;-76
2023/03/17 04:36:46;;;;;;;8.73;6.22;;;;;;;2.66;61.81;94127.41;5010567;28;20068;-76
2023/03/17 04:39:13;;;;;;;9.55;5.75;;;;;;;2.73;61.32;94122.72;5010655;28;20477;-77
2023/03/17 04:41:38;;;;;;;7.30;5.70;;;;;;;2.57;61.50;94106.09;5008213;28;20028;-77
2023/03/17 04:44:04;;;;;;;6.78;5.68;;;;;;;2.68;61.59;94125.31;5009652;28;20048;-77
2023/03/17 04:46:30;;;;;;;9.82;7.28;;;;;;;2.80;60.60;94128.50;5005780;28;20117;-77
2023/03/17 04:48:56;;;;;;;7.63;6.82;;;;;;;2.73;61.06;94133.22;5010820;28;20389;-77
2023/03/17 04:51:21;;;;;;;9.68;6.88;;;;;;;2.83;60.80;94138.53;5008152;28;20132;-78
2023/03/17 04:53:47;;;;;;;8.40;7.43;;;;;;;2.80;61.06;94137.19;5007342;28;20677;-79
2023/03/17 04:56:13;;;;;;;9.23;7.53;;;;;;;2.62;61.16;94115.84;5007116;28;20112;-77
2023/03/17 04:58:38;;;;;;;7.18;6.20;;;;;;;2.77;61.16;94140.34;4995273;28;20116;-77
2023/03/17 05:01:04;;;;;;;7.88;6.63;;;;;;;2.79;60.93;94138.22;5007661;28;20532;-77
2023/03/17 05:03:29;;;;;;;8.13;6.32;;;;;;;2.67;61.17;94137.66;5011076;28;20026;-78
2023/03/17 05:05:56;;;;;;;8.52;6.47;;;;;;;2.77;61.35;94155.28;5010182;28;20025;-77
2023/03/17 05:08:22;;;;;;;8.35;6.32;;;;;;;2.63;60.87;94135.81;5010336;28;20084;-77
2023/03/17 05:10:47;;;;;;;7.95;6.05;;;;;;;2.70;61.06;94155.53;5007798;28;20861;-80
2023/03/17 05:13:13;;;;;;;7.30;6.25;;;;;;;2.71;60.62;94151.06;5013803;28;20040;-77
2023/03/17 05:15:39;;;;;;;6.93;6.22;;;;;;;2.74;60.80;94161.88;5009648;28;20405;-78
2023/03/17 05:18:05;;;;;;;6.72;5.25;;;;;;;2.78;60.08;94172.66;5011632;28;20033;-77
2023/03/17 05:20:30;;;;;;;6.45;5.07;;;;;;;2.35;60.79;94121.22;5012602;28;20029;-77
2023/03/17 05:22:56;;;;;;;9.00;7.05;;;;;;;2.35;60.99;94132.47;4996642;28;20040;-76
2023/03/17 05:25:21;;;;;;;10.88;7.72;;;;;;;2.54;61.08;94172.25;4993221;28;20564;-77
2023/03/17 05:27:46;;;;;;;6.53;5.50;;;;;;;2.43;61.38;94184.53;5009605;28;20044;-78
2023/03/17 05:30:12;;;;;;;8.07;6.60;;;;;;;2.50;61.54;94182.47;5010805;28;20929;-78
2023/03/17 05:32:38;;;;;;;12.15;7.97;;;;;;;2.50;61.35;94177.22;5011029;28;20032;-77
2023/03/17 05:35:04;;;;;;;12.27;7.55;;;;;;;2.74;60.60;94182.09;5011226;28;20038;-77
2023/03/17 05:37:30;;;;;;;12.73;7.95;;;;;;;2.51;61.22;94178.78;5011318;28;20034;-78
2023/03/17 05:39:56;;;;;;;12.75;7.85;;;;;;;2.57;60.75;94181.44;4992425;28;20048;-78
2023/03/17 05:42:22;;;;;;;10.75;7.43;;;;;;;2.55;61.29;94181.69;4995685;28;20386;-77
2023/03/17 05:44:47;;;;;;;8.15;6.93;;;;;;;2.45;61.59;94184.28;5011091;28;20455;-78
2023/03/17 05:47:13;;;;;;;9.75;6.25;;;;;;;2.44;61.82;94175.63;5009677;28;20046;-77
2023/03/17 05:49:39;;;;;;;7.13;5.68;;;;;;;2.44;62.40;94190.56;5011502;28;20117;-79
2023/03/17 05:52:04;;;;;;;7.50;5.38;;;;;;;2.51;61.64;94197.16;4994352;28;20600;-77
2023/03/17 05:54:30;;;;;;;7.78;6.65;;;;;;;2.50;61.71;94192.97;4999328;28;20040;-77
2023/03/17 05:56:55;;;;;;;6.82;5.78;;;;;;;2.44;61.51;94170.38;5010349;28;20026;-77
2023/03/17 05:59:21;;;;;;;7.30;6.00;;;;;;;2.63;61.41;94196.19;5010786;28;20034;-77
2023/03/17 06:01:46;;;;;;;9.50;6.22;;;;;;;2.67;61.16;94207.78;5008803;28;20046;-77
2023/03/17 06:04:12;;;;;;;7.80;6.43;;;;;;;2.61;60.90;94199.06;5009276;28;20042;-77
2023/03/17 06:06:37;;;;;;;8.95;6.50;;;;;;;2.57;61.88;94213.75;5010240;28;20029;-77
2023/03/17 06:09:03;;;;;;;8.48;6.40;;;;;;;2.29;61.70;94175.50;5009612;28;20092;-78
2023/03/17 06:11:29;;;;;;;8.07;6.00;;;;;;;2.56;61.84;94208.75;5009321;28;20017;-78
2023/03/17 06:13:54;;;;;;;7.25;5.43;;;;;;;2.42;61.68;94203.16;5009306;28;20516;-77
2023/03/17 06:16:20;;;;;;;6.93;5.40;;;;;;;2.70;61.18;94229.06;4992845;28;20556;-77
2023/03/17 06:18:45;;;;;;;6.60;4.88;;;;;;;2.71;60.93;94240.34;5004551;28;20057;-78
2023/03/17 06:21:13;;;;;;;6.40;5.10;;;;;;;2.64;61.30;94234.56;5005719;28;20036;-77
2023/03/17 06:23:39;;;;;;;6.45;5.70;;;;;;;2.74;60.94;94238.03;4989744;28;20029;-77
2023/03/17 06:26:05;;;;;;;6.97;5.63;;;;;;;2.68;60.65;94230.38;5009394;28;20064;-78
2023/03/17 06:28:30;;;;;;;5.70;5.00;;;;;;;2.55;61.50;94222.94;4990686;28;20120;-77
2023/03/17 06:30:56;;;;;;;7.18;5.43;;;;;;;2.70;60.47;94223.00;5007268;28;20042;-77
2023/03/17 06:33:22;;;;;;;5.70;4.75;;;;;;;2.84;60.60;94232.81;5007522;28;21286;-77
2023/03/17 06:35:48;;;;;;;6.55;5.30;;;;;;;2.83;60.77;94252.28;5007990;28;20478;-78
2023/03/17 06:38:13;;;;;;;8.40;5.90;;;;;;;2.73;61.39;94233.03;5006795;28;20048;-77
2023/03/17 06:40:39;;;;;;;9.80;7.53;;;;;;;2.92;60.51;94242.88;5005258;28;20459;-77
2023/03/17 06:43:04;;;;;;;10.07;6.88;;;;;;;2.91;60.79;94230.75;5008311;28;20045;-77
2023/03/17 06:45:31;;;;;;;9.65;7.15;;;;;;;2.96;60.88;94233.41;5003425;28;20034;-79
2023/03/17 06:47:57;;;;;;;8.23;6.90;;;;;;;3.10;59.69;94233.75;5009187;28;20067;-78
2023/03/17 06:50:22;;;;;;;9.88;7.53;;;;;;;3.23;60.07;94256.16;5008190;28;20104;-78
2023/03/17 06:52:47;;;;;;;7.80;5.85;;;;;;;3.18;60.11;94262.19;5008955;28;20033;-79
2023/03/17 06:55:13;;;;;;;7.03;5.72;;;;;;;3.22;60.27;94262.47;5005476;28;20628;-78
2023/03/17 06:57:39;;;;;;;6.25;4.85;;;;;;;3.02;59.95;94251.84;4996823;28;20036;-78
2023/03/17 07:00:11;;;;;;;6.82;5.18;;;;;;;3.03;60.40;94253.44;4992014;28;20295;-77
2023/03/17 07:02:36;;;;;;;7.00;5.97;;;;;;;3.10;60.30;94260.03;5008781;28;20025;-77
2023/03/17 07:05:03;;;;;;;5.32;4.82;;;;;;;3.14;60.29;94249.78;5008799;28;20038;-78
2023/03/17 07:07:28;;;;;;;7.18;5.72;;;;;;;3.37;59.63;94271.22;4984752;28;20067;-78
2023/03/17 07:09:54;;;;;;;6.05;5.30;;;;;;;3.37;59.38;94275.69;5008553;28;20132;-77
2023/03/17 07:12:20;;;;;;;7.35;5.10;;;;;;;3.29;60.24;94276.16;4998864;28;20034;-77
2023/03/17 07:14:46;;;;;;;9.55;5.80;;;;;;;3.15;59.46;94252.16;5006953;28;20037;-77
2023/03/17 07:17:13;;;;;;;7.65;6.85;;;;;;;3.19;59.43;94274.25;5008676;28;20606;-77
2023/03/17 07:19:39;;;;;;;7.90;5.72;;;;;;;3.26;60.04;94272.19;5008374;28;20044;-77
2023/03/17 07:22:05;;;;;;;9.90;6.25;;;;;;;3.23;60.45;94272.69;5007090;28;20081;-78
2023/03/17 07:24:30;;;;;;;9.13;6.90;;;;;;;3.20;59.88;94259.28;5002330;28;20045;-78
2023/03/17 07:26:56;;;;;;;6.15;4.75;;;;;;;3.28;59.29;94272.72;4987127;28;20504;-79
2023/03/17 07:29:21;;;;;;;5.43;4.60;;;;;;;3.33;59.70;94280.63;4988847;28;20494;-77
2023/03/17 07:31:47;;;;;;;7.47;5.53;;;;;;;3.27;59.51;94255.41;4966973;28;20041;-79
2023/03/17 07:34:12;;;;;;;5.13;4.20;;;;;;;3.28;58.92;94256.19;4986364;28;20073;-78
2023/03/17 07:36:38;;;;;;;7.10;5.32;;;;;;;3.10;59.49;94249.50;4985655;28;20058;-79
2023/03/17 07:39:04;;;;;;;8.40;5.15;;;;;;;3.26;59.13;94269.56;4990465;28;20029;-77
2023/03/17 07:41:29;;;;;;;8.50;6.32;;;;;;;3.12;60.13;94267.66;4971120;28;20025;-77
2023/03/17 07:43:56;;;;;;;10.63;6.20;;;;;;;3.37;59.26;94275.69;4988728;28;20042;-79
2023/03/17 07:46:22;;;;;;;10.48;7.10;;;;;;;3.28;59.57;94272.72;4987054;28;20041;-78
2023/03/17 07:48:47;;;;;;;10.38;7.00;;;;;;;3.28;59.51;94275.34;4986618;28;20033;-77
2023/03/17 07:51:16;;;;;;;9.75;7.55;;;;;;;3.35;59.58;94267.25;4989399;28;20028;-78
2023/03/17 07:53:43;;;;;;;11.88;8.57;;;;;;;3.33;60.04;94285.88;4984422;28;20030;-78
2023/03/17 07:56:09;;;;;;;11.85;8.43;;;;;;;3.23;60.70;94267.44;4986163;28;20038;-77
2023/03/17 07:58:35;;;;;;;14.10;8.90;;;;;;;3.52;59.30;94272.31;4982168;28;20557;-78
2023/03/17 08:01:01;;;;;;;10.82;8.88;;;;;;;3.71;58.89;94292.63;4985711;28;20605;-78
2023/03/17 08:03:26;;;;;;;11.85;8.80;;;;;;;3.74;58.43;94296.59;4983258;28;20085;-78
2023/03/17 08:05:56;;;;;;;12.93;10.32;;;;;;;3.54;58.90;94285.97;4987922;28;20117;-78
2023/03/17 08:08:23;;;;;;;11.50;8.30;;;;;;;3.69;58.40;94286.84;4988738;28;20034;-78
2023/03/17 08:10:50;;;;;;;12.13;9.65;;;;;;;3.84;58.60;94307.13;4987045;28;20539;-78
2023/03/17 08:13:16;;;;;;;11.60;9.85;;;;;;;3.73;58.17;94281.84;4989723;28;20452;-77
2023/03/17 08:15:41;;;;;;;17.83;12.50;;;;;;;3.87;58.54;94303.22;4987211;28;20046;-76
2023/03/17 08:18:08;;;;;;;13.80;10.88;;;;;;;3.91;58.74;94299.81;4987266;28;20477;-78
2023/03/17 08:20:35;;;;;;;11.02;8.02;;;;;;;4.05;56.91;94298.25;4990245;28;20103;-76
2023/03/17 08:23:01;;;;;;;13.15;9.65;;;;;;;3.86;58.44;94307.69;4987404;28;20905;-78
2023/03/17 08:25:27;;;;;;;9.75;7.90;;;;;;;3.81;58.24;94287.41;5002375;28;20057;-78
2023/03/17 08:27:53;;;;;;;12.30;7.85;;;;;;;3.82;58.04;94290.81;5007283;28;20034;-77
2023/03/17 08:30:19;;;;;;;11.45;7.32;;;;;;;3.94;58.77;94301.13;4995151;28;20107;-77
2023/03/17 08:32:45;;;;;;;10.88;7.80;;;;;;;3.85;58.11;94266.63;5006804;28;20433;-78
2023/03/17 08:35:15;;;;;;;9.90;7.30;;;;;;;4.11;58.22;94299.81;4994290;28;20115;-78
2023/03/17 08:37:47;;;;;;;8.35;6.50;;;;;;;4.19;57.76;94301.97;5007387;28;20491;-78
2023/03/17 08:40:18;;;;;;;9.65;6.28;;;;;;;4.20;56.95;94284.34;5004332;28;20046;-78
2023/03/17 08:42:46;;;;;;;8.70;6.78;;;;;;;4.24;57.18;94285.38;4990525;28;20045;-78
2023/03/17 08:45:12;;;;;;;7.22;5.65;;;;;;;4.26;56.90;94284.06;5007742;28;20366;-76
2023/03/17 08:47:39;;;;;;;6.60;5.72;;;;;;;4.42;55.84;94298.06;5012212;28;20025;-77
2023/03/17 08:50:08;;;;;;;8.85;5.90;;;;;;;4.10;56.46;94293.00;5009308;28;20038;-77
2023/03/17 08:52:35;;;;;;;8.77;6.88;;;;;;;4.12;56.94;94261.94;5009525;28;20044;-78
2023/03/17 08:55:01;;;;;;;8.75;6.90;;;;;;;4.20;56.81;94279.84;5011389;28;20056;-78
2023/03/17 08:57:27;;;;;;;45.00;26.67;;;;;;;4.04;57.23;94301.94;4992721;28;20038;-77
2023/03/17 08:59:53;;;;;;;11.82;8.50;;;;;;;4.21;58.12;94296.41;5012348;28;20030;-77
2023/03/17 09:02:18;;;;;;;15.77;8.02;;;;;;;4.12;56.78;94259.28;5016997;28;20413;-77
2023/03/17 09:04:43;;;;;;;9.70;6.55;;;;;;;4.29;56.39;94272.22;5007151;28;20056;-77
2023/03/17 09:07:09;;;;;;;16.17;6.53;;;;;;;4.38;55.34;94299.66;5010246;28;20056;-76
2023/03/17 09:09:36;;;;;;;8.05;6.93;;;;;;;4.67;55.15;94297.28;5008138;28;20038;-78
2023/03/17 09:12:05;;;;;;;9.02;6.03;;;;;;;4.28;55.79;94276.69;4993153;28;20040;-78
2023/03/17 09:14:31;;;;;;;10.90;6.45;;;;;;;4.19;57.12;94309.06;5010441;28;20025;-77
2023/03/17 09:16:57;;;;;;;12.15;6.75;;;;;;;4.55;56.75;94287.00;5010713;28;20037;-78
2023/03/17 09:19:22;;;;;;;10.65;7.30;;;;;;;4.63;55.72;94310.19;5008304;28;20037;-78
2023/03/17 09:21:49;;;;;;;10.52;7.38;;;;;;;4.53;56.47;94289.13;5004488;28;20052;-78
2023/03/17 09:24:14;;;;;;;8.43;6.95;;;;;;;4.51;56.36;94279.88;5005332;28;20479;-77
2023/03/17 09:26:40;;;;;;;8.35;6.50;;;;;;;4.80;55.60;94299.38;4992575;28;20029;-77
2023/03/17 09:29:06;;;;;;;8.50;7.00;;;;;;;4.17;56.63;94254.03;5011213;28;20040;-78
2023/03/17 09:31:32;;;;;;;7.53;5.78;;;;;;;4.67;55.67;94299.91;5009048;28;20413;-78
2023/03/17 09:33:57;;;;;;;7.00;5.68;;;;;;;4.38;55.62;94286.47;4992707;28;20079;-77
2023/03/17 09:36:23;;;;;;;13.00;7.25;;;;;;;4.61;53.96;94282.53;4995100;28;20042;-78
2023/03/17 09:38:48;;;;;;;10.88;7.95;;;;;;;4.79;55.09;94316.25;5004967;28;20048;-78
2023/03/17 09:41:22;;;;;;;8.52;5.75;;;;;;;4.15;54.58;94311.44;5009108;28;20415;-77
2023/03/17 09:43:56;;;;;;;8.15;6.32;;;;;;;4.55;55.58;94312.56;4993446;28;20042;-77
2023/03/17 09:46:47;;;;;;;9.73;6.23;;;;;;;4.34;56.46;94317.03;5008972;28;20038;-77
2023/03/17 09:49:28;;;;;;;7.15;4.97;;;;;;;4.17;56.94;94313.78;5000592;28;20025;-77
2023/03/17 09:51:54;;;;;;;5.03;4.53;;;;;;;3.17;56.43;94318.44;4997051;28;20052;-77
2023/03/17 09:54:28;;;;;;;5.47;3.83;;;;;;;3.25;55.90;94320.56;5010958;28;20417;-78
2023/03/17 09:57:03;;;;;;;6.80;4.80;;;;;;;3.59;55.22;94289.44;4993164;28;20763;-77
2023/03/17 09:59:32;;;;;;;5.30;3.83;;;;;;;3.71;53.83;94315.53;4991950;28;20042;-78
2023/03/17 10:01:58;;;;;;;5.45;4.45;;;;;;;3.51;54.98;94304.91;5008402;28;20181;-78
2023/03/17 10:04:24;;;;;;;12.20;6.70;;;;;;;3.81;53.80;94299.78;5007546;28;20046;-79
2023/03/17 10:06:54;;;;;;;6.75;5.22;;;;;;;3.77;54.22;94327.66;5002266;28;20049;-77
2023/03/17 10:09:50;;;;;;;7.60;4.78;;;;;;;3.90;55.01;94323.75;5009446;28;20041;-77
2023/03/17 10:12:24;;;;;;;7.50;4.50;;;;;;;3.72;54.61;94327.63;5003985;28;20030;-78
2023/03/17 10:15:13;;;;;;;6.40;3.67;;;;;;;3.69;52.75;94318.41;4999209;28;20426;-78
2023/03/17 10:17:41;;;;;;;4.32;3.75;;;;;;;3.89;52.59;94320.31;5010425;28;20149;-79
2023/03/17 10:20:26;;;;;;;5.50;3.75;;;;;;;4.14;51.23;94316.97;5009060;28;20037;-77
2023/03/17 10:23:17;;;;;;;;;;;;;;;4.47;53.38;94321.78;5006551;28;20191;-78
2023/03/17 10:25:43;;;;;;;10.00;5.57;;;;;;;4.10;54.29;94308.78;5005723;28;19928;-79
2023/03/17 10:28:34;;;;;;;5.28;4.68;;;;;;;3.61;52.92;94276.81;5007831;28;20038;-77
2023/03/17 10:31:13;;;;;;;8.35;5.35;;;;;;;4.09;53.25;94278.25;5008230;28;20107;-78
2023/03/17 10:33:39;;;;;;;8.40;6.40;;;;;;;4.71;53.11;94300.97;5008027;28;20033;-78
2023/03/17 10:36:14;;;;;;;38.42;17.00;;;;;;;4.53;51.80;94262.00;5009889;28;20490;-78
2023/03/17 10:38:40;;;;;;;14.32;8.25;;;;;;;4.99;51.52;94287.22;5007111;28;20029;-79
2023/03/17 10:41:08;;;;;;;8.77;5.10;;;;;;;4.94;51.23;94268.78;5005130;28;20193;-78
2023/03/17 10:43:42;;;;;;;8.00;5.30;;;;;;;4.67;51.81;94305.97;5009933;28;20581;-78
2023/03/17 10:46:17;;;;;;;6.63;4.22;;;;;;;4.16;51.63;94313.00;5007494;28;20041;-77
2023/03/17 10:48:51;;;;;;;6.43;4.55;;;;;;;4.17;51.28;94301.41;4990284;28;20048;-78
2023/03/17 10:51:30;;;;;;;8.23;5.15;;;;;;;4.13;51.13;94291.69;5012161;28;20124;-77
2023/03/17 10:53:59;;;;;;;12.70;5.90;;;;;;;3.67;53.18;94298.69;5010291;28;20108;-77
2023/03/17 10:56:34;;;;;;;7.50;5.05;;;;;;;3.92;52.68;94293.47;5008639;28;20049;-79
2023/03/17 10:59:06;;;;;;;10.05;6.20;;;;;;;3.86;51.06;94286.63;4999658;28;20046;-78
2023/03/17 11:01:40;;;;;;;7.05;4.38;;;;;;;3.50;51.76;94292.81;5007341;28;20037;-78
2023/03/17 11:04:34;;;;;;;9.55;5.07;;;;;;;3.24;53.53;94250.63;4996607;28;20037;-77
2023/03/17 11:07:08;;;;;;;8.80;5.32;;;;;;;3.45;52.21;94277.81;5008588;28;20049;-79
2023/03/17 11:09:36;;;;;;;6.35;4.85;;;;;;;3.50;52.79;94275.19;4989913;28;20041;-77
2023/03/17 11:12:17;;;;;;;10.07;5.38;;;;;;;3.61;52.72;94266.31;4990419;28;20025;-78
2023/03/17 11:14:43;;;;;;;8.35;4.82;;;;;;;4.25;52.70;94250.91;5007371;28;20591;-78
2023/03/17 11:17:17;;;;;;;8.52;5.07;;;;;;;4.76;52.99;94260.63;5008842;28;20033;-77
2023/03/17 11:19:54;;;;;;;6.95;4.65;;;;;;;4.70;50.62;94252.75;4993044;28;20038;-77
2023/03/17 11:22:25;;;;;;;7.05;5.43;;;;;;;5.00;50.86;94230.81;4992012;28;20042;-78
2023/03/17 11:25:10;;;;;;;8.05;4.53;;;;;;;5.31;50.57;94260.53;4995104;28;20041;-77
2023/03/17 11:27:57;;;;;;;5.85;4.32;;;;;;;4.58;49.86;94265.41;5009243;28;20037;-77
2023/03/17 11:30:51;;;;;;;7.07;4.35;;;;;;;4.23;49.37;94268.78;5009399;28;20107;-78
2023/03/17 11:33:45;;;;;;;7.10;4.55;;;;;;;4.55;50.21;94263.28;5007371;28;20029;-78
2023/03/17 11:36:39;;;;;;;8.85;5.35;;;;;;;4.59;52.59;94261.72;4990428;28;20092;-79
2023/03/17 11:39:25;;;;;;;5.32;4.45;;;;;;;3.96;50.71;94265.59;4985958;28;20052;-78
2023/03/17 11:41:53;;;;;;;;;;;;;;;4.54;50.66;94268.84;5007226;28;20025;-78
2023/03/17 11:44:25;;;;;;;12.82;6.47;;;;;;;4.93;50.47;94256.69;5006503;28;19921;-78